Weather History for Tracy, MN

Change the Weather History Date:

Wednesday, November 21, 2012

  Actual Average (KMML) Record (KMML)
Temperature  
Mean Temperature 55 °F -  
Max Temperature 67 °F 37 °F 70 °F (1962)
Min Temperature 43 °F 19 °F -7 °F (1964)
Degree Days  
Heating Degree Days 10    
Growing Degree Days 5 (Base 50)    
Moisture  
Dew Point 36 °F    
Average Humidity 52    
Maximum Humidity 69    
Minimum Humidity 28    
Precipitation  
Precipitation 0.00 in - - ()
Sea Level Pressure  
Sea Level Pressure 29.83 in    
Wind  
Wind Speed 15 mph (SSW)    
Max Wind Speed 22 mph    
Max Gust Speed 30 mph    
Visibility 10 miles    
Events      
Averages and records for this station are not official NWS values.
T = Trace of Precipitation, MM = Missing Value Source: NWS Daily Summary

Daily Weather History Graph

Daily Weather History Graph

Search for Another Location

Airport:

Trip Planner

Search our weather history database for the weather conditions in past years. The results will help you decide how hot, cold, wet, or windy it might be!

Date:

Astronomy

Nov. 21, 2012 Rise Set
Actual Time 7:26 AM CST 4:50 PM CST
Civil Twilight 6:54 AM CST 5:21 PM CST
Nautical Twilight 6:19 AM CST 5:57 PM CST
Astronomical Twilight 5:44 AM CST 6:31 PM CST
Moon 1:19 PM CST (11/21) 12:32 AM CST (11/21)
Length of Visible Light 10h 27m
Length of Day
9h 23m
First Quarter, 62% of the Moon is Illuminated
Nov 21
First Quarter
Nov 28
Full
Dec 6
Last Quarter
Dec 13
New
Dec 19
First Quarter

Hourly Weather History & Observations

Time (CST) Temp. Windchill Dew Point Humidity Pressure Visibility Wind Dir Wind Speed Gust Speed Precip Events Conditions
12:14 AM 48.6 °F - 32.2 °F 53% 29.96 in 10.0 mi SSW 17.3 mph 24.2 mph N/A   Clear
12:34 AM 48.2 °F - 32.2 °F 54% 29.96 in 10.0 mi SSW 15.0 mph - N/A   Clear
12:54 AM 48.2 °F - 32.5 °F 55% 29.96 in 10.0 mi SSW 15.0 mph - N/A   Clear
1:15 AM 47.8 °F - 32.9 °F 56% 29.96 in 10.0 mi SSW 18.4 mph 23.0 mph N/A   Clear
1:35 AM 47.3 °F - 32.9 °F 57% 29.95 in 10.0 mi SSW 17.3 mph 23.0 mph N/A   Clear
1:55 AM 47.3 °F - 32.9 °F 57% 29.95 in 10.0 mi SSW 18.4 mph 24.2 mph N/A   Clear
2:15 AM 47.1 °F - 33.1 °F 58% 29.95 in 10.0 mi SSW 19.6 mph 25.3 mph N/A   Clear
2:34 AM 46.9 °F - 33.1 °F 59% 29.94 in 10.0 mi SSW 21.9 mph 29.9 mph N/A   Clear
2:54 AM 46.6 °F - 33.3 °F 60% 29.94 in 10.0 mi SSW 21.9 mph 27.6 mph N/A   Clear
3:15 AM 46.0 °F 38.5 °F 33.3 °F 61% 29.94 in 10.0 mi SSW 19.6 mph 26.5 mph N/A   Clear
3:34 AM 45.5 °F 38.3 °F 33.3 °F 62% 29.94 in 10.0 mi SSW 17.3 mph - N/A   Clear
3:55 AM 45.0 °F 37.9 °F 33.4 °F 64% 29.94 in 10.0 mi SSW 16.1 mph - N/A   Clear
4:14 AM 44.6 °F 37.8 °F 33.4 °F 65% 29.93 in 10.0 mi SSW 15.0 mph - N/A   Clear
4:35 AM 43.7 °F 39.1 °F 33.3 °F 67% 29.92 in 10.0 mi SSW 8.1 mph 19.6 mph N/A   Clear
4:54 AM 43.7 °F 37.3 °F 33.4 °F 67% 29.92 in 10.0 mi SSW 12.7 mph 16.1 mph N/A   Clear
5:15 AM 43.9 °F 37.5 °F 33.4 °F 67% 29.93 in 10.0 mi SW 12.7 mph 17.3 mph N/A   Clear
5:34 AM 43.9 °F 36.8 °F 33.8 °F 68% 29.92 in 10.0 mi SW 15.0 mph 20.7 mph N/A   Clear
5:54 AM 44.1 °F - 33.8 °F 67% 29.93 in 10.0 mi Calm Calm - N/A   Clear
6:15 AM 43.3 °F - 33.6 °F 69% 29.93 in 10.0 mi Calm Calm - N/A   Clear
6:34 AM 43.7 °F 36.3 °F 33.8 °F 68% 29.92 in 10.0 mi SW 16.1 mph 20.7 mph N/A   Clear
6:54 AM 43.7 °F 36.3 °F 33.8 °F 68% 29.92 in 10.0 mi SW 16.1 mph - N/A   Clear
7:15 AM 43.5 °F 35.8 °F 33.6 °F 68% 29.92 in 10.0 mi SW 17.3 mph - N/A   Clear
7:35 AM 43.7 °F 39.1 °F 33.8 °F 68% 29.92 in 10.0 mi SSW 8.1 mph - N/A   Clear
7:54 AM 43.7 °F 36.3 °F 33.8 °F 68% 29.92 in 10.0 mi SW 16.1 mph - N/A   Clear
8:14 AM 43.7 °F 36.3 °F 33.8 °F 68% 29.92 in 10.0 mi SW 16.1 mph - N/A   Clear
8:34 AM 43.9 °F 35.9 °F 33.8 °F 68% 29.92 in 10.0 mi SSW 18.4 mph - N/A   Clear
8:55 AM 44.6 °F 37.8 °F 34.2 °F 67% 29.91 in 10.0 mi SSW 15.0 mph - N/A   Clear
9:14 AM 45.9 °F 39.1 °F 34.7 °F 65% 29.92 in 10.0 mi SSW 16.1 mph - N/A   Clear
9:34 AM 48.0 °F - 35.6 °F 62% 29.92 in 10.0 mi SW 15.0 mph - N/A   Clear
9:55 AM 50.5 °F - 36.3 °F 58% 29.91 in 10.0 mi SSW 16.1 mph - N/A   Clear
10:14 AM 51.6 °F - 35.8 °F 55% 29.91 in 10.0 mi SSW 11.5 mph - N/A   Clear
10:34 AM 52.0 °F - 35.4 °F 53% 29.91 in 10.0 mi SW 6.9 mph - N/A   Clear
10:55 AM 53.8 °F - 35.8 °F 51% 29.90 in 10.0 mi SSW 6.9 mph - N/A   Clear
11:14 AM 54.1 °F - 35.6 °F 50% 29.89 in 10.0 mi SSW 13.8 mph 17.3 mph N/A   Clear
11:34 AM 56.8 °F - 35.6 °F 45% 29.88 in 10.0 mi Calm Calm - N/A   Clear
11:55 AM 58.8 °F - 34.5 °F 40% 29.87 in 10.0 mi Calm Calm - N/A   Clear
12:15 PM 61.0 °F - 33.3 °F 35% 29.85 in 10.0 mi Calm Calm - N/A   Clear
12:35 PM 62.2 °F - 33.6 °F 34% 29.84 in 10.0 mi SSW 3.5 mph 16.1 mph N/A   Clear
12:55 PM 62.6 °F - 33.1 °F 33% 29.83 in 10.0 mi SSW 16.1 mph - N/A   Clear
1:14 PM 62.8 °F - 34.5 °F 35% 29.82 in 10.0 mi SSW 12.7 mph 20.7 mph N/A   Clear
1:34 PM 63.7 °F - 34.9 °F 34% 29.81 in 10.0 mi SSW 17.3 mph 24.2 mph N/A   Clear
1:55 PM 65.1 °F - 33.8 °F 31% 29.79 in 10.0 mi SSW 16.1 mph 23.0 mph N/A   Clear
2:14 PM 66.2 °F - 32.9 °F 29% 29.78 in 10.0 mi SSW 17.3 mph 21.9 mph N/A   Clear
2:34 PM 66.4 °F - 32.9 °F 29% 29.78 in 10.0 mi SSW 16.1 mph 27.6 mph N/A   Clear
2:54 PM 66.4 °F - 34.3 °F 31% 29.77 in 10.0 mi SSW 19.6 mph 26.5 mph N/A   Clear
3:14 PM 66.7 °F - 34.0 °F 30% 29.76 in 10.0 mi SSW 17.3 mph 21.9 mph N/A   Clear
3:35 PM 67.5 °F - 32.7 °F 28% 29.76 in 10.0 mi SSW 16.1 mph 19.6 mph N/A   Clear
3:59 PM 66.2 °F - 32.9 °F 29% 29.75 in 10.0 mi South 12.7 mph 20.7 mph N/A   Clear
4:14 PM 65.3 °F - 35.6 °F 33% 29.76 in 10.0 mi SSW 15.0 mph 25.3 mph N/A   Clear
4:35 PM 63.7 °F - 36.7 °F 37% 29.75 in 10.0 mi South 11.5 mph - N/A   Clear
4:55 PM 61.9 °F - 37.6 °F 41% 29.74 in 10.0 mi South 10.4 mph - N/A   Clear
5:14 PM 60.8 °F - 38.8 °F 44% 29.73 in 10.0 mi South 11.5 mph 18.4 mph N/A   Clear
5:34 PM 60.1 °F - 39.2 °F 46% 29.73 in 10.0 mi South 13.8 mph - N/A   Clear
5:55 PM 60.8 °F - 38.3 °F 43% 29.73 in 10.0 mi South 13.8 mph 20.7 mph N/A   Clear
6:14 PM 59.9 °F - 38.3 °F 45% 29.73 in 10.0 mi South 13.8 mph 21.9 mph N/A   Clear
6:35 PM 58.5 °F - 38.7 °F 48% 29.72 in 10.0 mi South 11.5 mph 18.4 mph N/A   Clear
6:55 PM 57.7 °F - 39.9 °F 51% 29.72 in 10.0 mi South 12.7 mph 19.6 mph N/A   Clear
7:14 PM 57.7 °F - 41.0 °F 54% 29.71 in 10.0 mi South 12.7 mph 19.6 mph N/A   Clear
7:34 PM 57.9 °F - 41.4 °F 54% 29.70 in 10.0 mi South 17.3 mph 21.9 mph N/A   Clear
7:55 PM 58.1 °F - 41.4 °F 54% 29.69 in 10.0 mi SSW 17.3 mph 25.3 mph N/A   Clear
8:14 PM 57.9 °F - 41.2 °F 54% 29.69 in 10.0 mi SSW 16.1 mph 23.0 mph N/A   Clear
8:34 PM 57.4 °F - 41.0 °F 54% 29.69 in 10.0 mi SSW 15.0 mph 24.2 mph N/A   Clear
8:55 PM 58.1 °F - 40.3 °F 52% 29.69 in 10.0 mi SSW 16.1 mph 21.9 mph N/A   Clear
9:14 PM 58.3 °F - 40.1 °F 51% 29.69 in 10.0 mi SSW 19.6 mph 25.3 mph N/A   Clear
9:35 PM 57.4 °F - 39.9 °F 52% 29.68 in 10.0 mi SSW 19.6 mph 25.3 mph N/A   Clear
9:55 PM 58.1 °F - 39.4 °F 50% 29.67 in 10.0 mi SSW 21.9 mph 29.9 mph N/A   Clear
10:15 PM 57.0 °F - 39.4 °F 52% 29.67 in 10.0 mi SSW 18.4 mph 28.8 mph N/A   Clear
10:35 PM 56.5 °F - 39.4 °F 53% 29.66 in 10.0 mi SSW 18.4 mph 26.5 mph N/A   Clear
10:55 PM 56.3 °F - 39.2 °F 53% 29.65 in 10.0 mi SSW 18.4 mph 27.6 mph N/A   Clear
11:14 PM 55.9 °F - 39.2 °F 53% 29.64 in 10.0 mi SSW 18.4 mph 25.3 mph N/A   Clear
11:35 PM 55.9 °F - 38.8 °F 53% 29.64 in 10.0 mi SSW 20.7 mph 29.9 mph N/A   Clear
11:54 PM 55.4 °F - 38.7 °F 53% 29.63 in 10.0 mi SSW 19.6 mph 28.8 mph N/A   Clear